Time;durP1;ratioP1;P1;durP2;ratioP2;P2;SDS_P1;SDS_P2;PMS_P1;PMS_P2;Temp;Humidity;BMP_temperature;BMP_pressure;BME280_temperature;BME280_humidity;BME280_pressure;Samples;Min_cycle;Max_cycle;Signal;HPM_P1;HPM_P2
2021/12/01 18:54:26;;;;;;;31.08;6.85;;;;;;;;;;5036856;28;20365;-59
2021/12/01 18:56:53;;;;;;;17.58;5.05;;;;;;;;;;5030076;28;20030;-57
2021/12/01 18:59:19;;;;;;;20.13;5.35;;;;;;;;;;5027130;28;20386;-60
2021/12/01 19:01:46;;;;;;;17.95;5.65;;;;;;;;;;5018582;28;20401;-61
2021/12/01 19:04:14;;;;;;;14.63;4.80;;;;;;;;;;5029335;28;20105;-60
2021/12/01 19:06:40;;;;;;;12.50;4.45;;;;;;;;;;5029291;28;20034;-60
2021/12/01 19:09:06;;;;;;;20.48;5.50;;;;;;;;;;5034688;28;20449;-61
2021/12/01 19:11:32;;;;;;;10.32;4.50;;;;;;;;;;5034073;28;20091;-60
2021/12/01 19:13:59;;;;;;;14.68;5.05;;;;;;;;;;5026953;28;20037;-61
2021/12/01 19:16:25;;;;;;;16.48;5.25;;;;;;;;;;5023793;28;20025;-60
2021/12/01 19:18:51;;;;;;;18.48;5.30;;;;;;;;;;5024512;28;20029;-61
2021/12/01 19:21:17;;;;;;;12.68;4.50;;;;;;;;;;5026997;28;20040;-61
2021/12/01 19:23:45;;;;;;;13.60;4.63;;;;;;;;;;5033342;28;20060;-62
2021/12/01 19:26:13;;;;;;;11.65;4.82;;;;;;;;;;5031572;28;20026;-62
2021/12/01 19:28:40;;;;;;;11.98;4.22;;;;;;;;;;5029153;28;20403;-62
2021/12/01 19:31:08;;;;;;;13.27;4.03;;;;;;;;;;5029700;28;20026;-62
2021/12/01 19:33:35;;;;;;;14.10;4.32;;;;;;;;;;5020813;28;20059;-61
2021/12/01 19:36:02;;;;;;;16.40;4.30;;;;;;;;;;5036674;28;20037;-63
2021/12/01 19:38:28;;;;;;;16.30;4.07;;;;;;;;;;5030733;28;20038;-62
2021/12/01 19:40:54;;;;;;;16.85;4.18;;;;;;;;;;5034284;28;20030;-62
2021/12/01 19:43:21;;;;;;;20.42;3.78;;;;;;;;;;5026453;28;20038;-61
2021/12/01 19:45:51;;;;;;;11.95;3.65;;;;;;;;;;5029533;28;20025;-61
2021/12/01 19:48:18;;;;;;;9.82;2.92;;;;;;;;;;5030768;28;20061;-61
2021/12/01 19:50:44;;;;;;;11.27;3.10;;;;;;;;;;5028027;28;20082;-61
2021/12/01 19:53:11;;;;;;;8.75;2.75;;;;;;;;;;5029236;28;20091;-61
2021/12/01 19:55:37;;;;;;;10.32;4.00;;;;;;;;;;5026882;28;20030;-61
2021/12/01 19:58:03;;;;;;;15.73;4.20;;;;;;;;;;5033524;28;20025;-61
2021/12/01 20:00:32;;;;;;;11.73;3.20;;;;;;;;;;5029352;28;20560;-61
2021/12/01 20:02:58;;;;;;;11.23;3.05;;;;;;;;;;5032337;28;20436;-61
2021/12/01 20:05:25;;;;;;;12.57;4.45;;;;;;;;;;5019101;28;20037;-61
2021/12/01 20:07:52;;;;;;;16.83;4.57;;;;;;;;;;5012069;28;20029;-61
2021/12/01 20:10:19;;;;;;;12.18;4.00;;;;;;;;;;5016710;28;20681;-62
2021/12/01 20:12:47;;;;;;;16.33;4.60;;;;;;;;;;5018122;28;20041;-62
2021/12/01 20:15:14;;;;;;;17.33;4.00;;;;;;;;;;5021848;28;20044;-62
2021/12/01 20:17:43;;;;;;;15.30;4.93;;;;;;;;;;5013598;28;20037;-61
2021/12/01 20:20:10;;;;;;;11.45;4.15;;;;;;;;;;5017032;28;20133;-62
2021/12/01 20:22:42;;;;;;;13.80;4.57;;;;;;;;;;5007382;28;20034;-61
2021/12/01 20:25:09;;;;;;;14.15;4.22;;;;;;;;;;5009620;28;20041;-60
2021/12/01 20:27:37;;;;;;;19.98;4.88;;;;;;;;;;5006624;28;20437;-61
2021/12/01 20:30:04;;;;;;;16.10;5.40;;;;;;;;;;5007412;28;20026;-61
2021/12/01 20:32:30;;;;;;;17.02;5.55;;;;;;;;;;5008075;28;20033;-61
2021/12/01 20:34:59;;;;;;;14.68;4.78;;;;;;;;;;5008136;28;20029;-62
2021/12/01 20:37:25;;;;;;;15.15;4.43;;;;;;;;;;5023114;28;20606;-62
2021/12/01 20:39:52;;;;;;;13.38;4.65;;;;;;;;;;5017405;28;20040;-62
2021/12/01 20:42:23;;;;;;;10.57;3.95;;;;;;;;;;5019405;28;20044;-62
2021/12/01 20:44:51;;;;;;;13.80;4.40;;;;;;;;;;5011964;28;20456;-61
2021/12/01 20:47:40;;;;;;;12.50;4.00;;;;;;;;;;5011330;28;20125;-62
2021/12/01 20:55:50;;;;;;;9.18;3.42;;;;;;;;;;5015707;28;20037;-62
2021/12/01 20:58:25;;;;;;;7.85;3.92;;;;;;;;;;5016733;28;20486;-61
2021/12/01 21:03:38;;;;;;;9.50;4.53;;;;;;;;;;5015015;28;20052;-63
2021/12/01 21:06:05;;;;;;;13.95;4.90;;;;;;;;;;5019047;28;20083;-64
2021/12/01 21:08:33;;;;;;;8.27;3.00;;;;;;;;;;5014267;28;20021;-63
2021/12/01 21:11:02;;;;;;;8.50;3.03;;;;;;;;;;5016517;28;20041;-64
2021/12/01 21:13:30;;;;;;;13.25;3.72;;;;;;;;;;5013424;28;20420;-62
2021/12/01 21:15:57;;;;;;;11.50;3.15;;;;;;;;;;5009969;28;20021;-63
2021/12/01 21:18:23;;;;;;;17.50;7.85;;;;;;;;;;5009511;28;20034;-63
2021/12/01 21:20:51;;;;;;;10.35;3.67;;;;;;;;;;5014250;28;20504;-62
2021/12/01 21:23:18;;;;;;;8.50;3.13;;;;;;;;;;5013045;28;20474;-63
2021/12/01 21:25:51;;;;;;;12.32;3.58;;;;;;;;;;5020373;28;20029;-64
2021/12/01 21:28:20;;;;;;;14.27;3.17;;;;;;;;;;5009242;28;20037;-63
2021/12/01 21:30:50;;;;;;;12.10;3.88;;;;;;;;;;5015674;28;20763;-62
2021/12/01 21:33:17;;;;;;;9.50;3.05;;;;;;;;;;5018165;28;20045;-62
2021/12/01 21:35:44;;;;;;;8.90;2.58;;;;;;;;;;5015396;28;20035;-62
2021/12/01 21:38:10;;;;;;;11.75;3.47;;;;;;;;;;5013256;28;20034;-62
2021/12/01 21:40:36;;;;;;;12.50;2.65;;;;;;;;;;5017231;28;20026;-63
2021/12/01 21:43:02;;;;;;;10.05;2.53;;;;;;;;;;5025182;28;20030;-63
2021/12/01 21:45:29;;;;;;;13.95;2.85;;;;;;;;;;5017735;28;20025;-62
2021/12/01 21:47:55;;;;;;;5.38;2.00;;;;;;;;;;5013152;28;20025;-61
2021/12/01 21:50:22;;;;;;;12.23;2.50;;;;;;;;;;5013491;28;20026;-61
2021/12/01 21:52:48;;;;;;;5.60;2.28;;;;;;;;;;5006655;28;20209;-61
2021/12/01 21:55:15;;;;;;;5.07;2.10;;;;;;;;;;5013252;28;20030;-61
2021/12/01 21:57:42;;;;;;;7.50;2.00;;;;;;;;;;5015205;28;20382;-60
2021/12/01 22:00:09;;;;;;;4.68;1.83;;;;;;;;;;5006634;28;20037;-61
2021/12/01 22:02:39;;;;;;;10.07;2.05;;;;;;;;;;5010556;28;20488;-61
2021/12/01 22:05:05;;;;;;;12.27;2.70;;;;;;;;;;5003093;28;20085;-61
2021/12/01 22:07:31;;;;;;;6.70;2.35;;;;;;;;;;5020789;28;20018;-61
2021/12/01 22:09:57;;;;;;;3.75;1.83;;;;;;;;;;5017133;28;20057;-60
2021/12/01 22:12:24;;;;;;;5.97;1.92;;;;;;;;;;5017479;28;20398;-60
2021/12/01 22:14:51;;;;;;;5.97;2.35;;;;;;;;;;5018720;28;20033;-61
2021/12/01 22:17:18;;;;;;;4.70;1.77;;;;;;;;;;5015835;28;20033;-60
2021/12/01 22:19:46;;;;;;;6.22;1.92;;;;;;;;;;5019357;28;20061;-60
2021/12/01 22:22:17;;;;;;;8.70;1.83;;;;;;;;;;5019319;28;20029;-61
2021/12/01 22:24:50;;;;;;;5.35;1.90;;;;;;;;;;5018676;28;20041;-61
2021/12/01 22:27:19;;;;;;;3.30;1.88;;;;;;;;;;5013949;28;20018;-62
2021/12/01 22:29:47;;;;;;;3.75;1.60;;;;;;;;;;5014406;28;20108;-61
2021/12/01 22:32:14;;;;;;;8.25;1.70;;;;;;;;;;5018197;28;20096;-61
2021/12/01 22:34:42;;;;;;;4.32;1.40;;;;;;;;;;5012534;28;20030;-62
2021/12/01 22:37:11;;;;;;;3.88;1.48;;;;;;;;;;5010986;28;20026;-62
2021/12/01 22:39:38;;;;;;;4.43;1.48;;;;;;;;;;5008051;28;20527;-61
2021/12/01 22:42:04;;;;;;;3.92;1.42;;;;;;;;;;5014455;28;20080;-61
2021/12/01 22:44:30;;;;;;;6.30;1.52;;;;;;;;;;5015121;28;20021;-61
2021/12/01 22:46:57;;;;;;;3.63;1.27;;;;;;;;;;5012045;28;20025;-62
2021/12/01 22:49:23;;;;;;;4.35;1.92;;;;;;;;;;5009360;28;20414;-61
2021/12/01 22:51:50;;;;;;;3.30;1.50;;;;;;;;;;5011950;28;20072;-62
2021/12/01 22:54:16;;;;;;;3.30;1.70;;;;;;;;;;5018031;28;20052;-62
2021/12/01 22:56:47;;;;;;;6.20;2.00;;;;;;;;;;5018636;28;20088;-61
2021/12/01 22:59:13;;;;;;;2.47;1.40;;;;;;;;;;5000792;28;20032;-62
2021/12/01 23:01:47;;;;;;;4.85;1.80;;;;;;;;;;5011535;28;20032;-61
2021/12/01 23:04:13;;;;;;;4.72;2.20;;;;;;;;;;5003859;28;20490;-62
2021/12/01 23:06:54;;;;;;;3.88;1.60;;;;;;;;;;5010394;28;20503;-62
